createdAt,value
2022-10-18T00:01:37.888Z,16.98
2022-10-18T00:06:42.664Z,17.04
2022-10-18T00:11:45.584Z,17.01
2022-10-18T00:16:47.486Z,16.97
2022-10-18T00:21:52.204Z,16.86
2022-10-18T00:26:55.237Z,16.67
2022-10-18T00:31:57.151Z,16.71
2022-10-18T00:36:59.189Z,16.49
2022-10-18T00:42:01.185Z,16.67
2022-10-18T00:47:08.267Z,16.71
2022-10-18T00:52:13.659Z,16.44
2022-10-18T00:57:15.564Z,16.65
2022-10-18T01:02:18.516Z,16.61
2022-10-18T01:07:48.137Z,16.59
2022-10-18T01:13:02.079Z,16.57
2022-10-18T01:18:16.751Z,16.55
2022-10-18T01:23:41.259Z,16.49
2022-10-18T01:29:01.527Z,16.40
2022-10-18T01:34:06.338Z,16.39
2022-10-18T01:39:12.282Z,16.37
2022-10-18T01:44:18.018Z,16.26
2022-10-18T01:49:19.928Z,16.27
2022-10-18T01:54:32.973Z,16.28
2022-10-18T02:00:04.725Z,16.28
2022-10-18T02:05:25.284Z,16.29
2022-10-18T02:10:35.292Z,16.22
2022-10-18T02:15:41.826Z,16.20
2022-10-18T02:20:45.719Z,16.05
2022-10-18T02:25:47.732Z,16.06
2022-10-18T02:30:52.209Z,16.01
2022-10-18T02:36:00.167Z,15.93
2022-10-18T02:41:02.131Z,15.87
2022-10-18T02:46:04.068Z,15.88
2022-10-18T02:51:06.109Z,15.89
2022-10-18T02:56:08.484Z,15.89
2022-10-18T03:01:11.265Z,15.90
2022-10-18T03:06:13.268Z,15.68
2022-10-18T03:11:15.242Z,15.80
2022-10-18T03:16:17.890Z,15.71
2022-10-18T03:21:20.645Z,15.76
2022-10-18T03:26:22.591Z,15.44
2022-10-18T03:31:24.695Z,15.71
2022-10-18T03:36:26.825Z,15.47
2022-10-18T03:41:29.439Z,15.63
2022-10-18T03:46:31.548Z,15.64
2022-10-18T03:51:33.509Z,15.60
2022-10-18T03:56:35.526Z,15.36
2022-10-18T04:01:37.567Z,15.55
2022-10-18T04:06:39.529Z,15.49
2022-10-18T04:11:41.870Z,15.61
2022-10-18T04:16:43.822Z,15.65
2022-10-18T04:21:45.664Z,15.44
2022-10-18T04:26:48.326Z,15.45
2022-10-18T04:31:50.423Z,15.34
2022-10-18T04:36:52.484Z,15.11
2022-10-18T04:41:54.333Z,15.35
2022-10-18T04:46:56.159Z,15.30
2022-10-18T04:51:58.147Z,15.37
2022-10-18T04:57:01.489Z,15.12
2022-10-18T05:02:04.894Z,15.23
2022-10-18T05:07:06.886Z,15.17
2022-10-18T05:12:09.070Z,15.14
2022-10-18T05:17:10.953Z,15.19
2022-10-18T05:22:12.854Z,15.18
2022-10-18T05:27:14.751Z,15.04
2022-10-18T05:32:16.717Z,15.22
2022-10-18T05:37:19.071Z,15.23
2022-10-18T05:42:20.987Z,14.98
2022-10-18T05:47:22.853Z,15.13
2022-10-18T05:53:06.822Z,15.13
2022-10-18T05:58:14.487Z,15.07
2022-10-18T06:03:16.345Z,14.86
2022-10-18T06:08:18.269Z,15.09
2022-10-18T06:13:20.225Z,15.07
2022-10-18T06:18:22.185Z,15.07
2022-10-18T06:23:24.198Z,15.03
2022-10-18T06:28:26.659Z,14.75
2022-10-18T06:33:28.544Z,15.03
2022-10-18T06:38:30.925Z,15.05
2022-10-18T06:43:33.089Z,15.03
2022-10-18T06:48:36.212Z,15.06
2022-10-18T06:53:44.627Z,15.10
2022-10-18T06:59:00.902Z,15.16
2022-10-18T07:04:02.981Z,15.17
2022-10-18T07:09:05.010Z,14.99
2022-10-18T07:14:07.273Z,15.00
2022-10-18T07:19:52.087Z,15.24
2022-10-18T07:24:53.918Z,15.25
2022-10-18T07:29:55.814Z,15.22
2022-10-18T07:34:58.983Z,15.32
2022-10-18T07:40:00.885Z,15.43
2022-10-18T07:45:03.581Z,15.53
2022-10-18T07:50:06.903Z,15.64
2022-10-18T07:55:08.949Z,15.56
2022-10-18T08:00:11.787Z,15.92
2022-10-18T08:05:13.736Z,16.06
2022-10-18T08:10:15.741Z,16.12
2022-10-18T08:15:19.634Z,16.27
2022-10-18T08:20:30.508Z,16.64
2022-10-18T08:25:33.229Z,16.85
2022-10-18T08:30:36.091Z,16.87
2022-10-18T08:35:38.115Z,17.13
2022-10-18T08:40:45.218Z,17.23
2022-10-18T08:45:48.174Z,17.43
2022-10-18T08:50:51.266Z,17.71
2022-10-18T08:55:58.468Z,17.98
2022-10-18T09:01:37.946Z,18.30
2022-10-18T09:07:04.804Z,18.79
2022-10-18T09:12:27.478Z,19.64
2022-10-18T09:17:56.098Z,19.41
2022-10-18T09:23:12.668Z,19.59
2022-10-18T09:28:40.536Z,20.66
2022-10-18T09:33:58.720Z,21.25
2022-10-18T09:39:04.283Z,21.90
2022-10-18T09:44:14.948Z,22.65
2022-10-18T09:49:17.804Z,23.50
2022-10-18T09:54:28.655Z,23.46
2022-10-18T09:59:43.475Z,24.00
2022-10-18T10:04:45.554Z,24.03
2022-10-18T10:09:49.672Z,24.31
2022-10-18T10:14:51.551Z,24.60
2022-10-18T10:19:59.838Z,25.09
2022-10-18T10:25:02.176Z,25.32
2022-10-18T10:30:07.447Z,25.42
2022-10-18T10:35:53.065Z,25.67
2022-10-18T10:40:57.362Z,25.80
2022-10-18T10:46:08.102Z,25.97
2022-10-18T10:51:11.159Z,26.28
2022-10-18T10:56:27.454Z,26.33
2022-10-18T11:01:32.530Z,25.73
2022-10-18T11:06:52.133Z,25.34
2022-10-18T11:12:18.779Z,25.05
2022-10-18T11:17:43.461Z,24.67
2022-10-18T11:23:09.070Z,24.35
2022-10-18T11:28:35.744Z,24.28
2022-10-18T11:34:08.884Z,24.28
2022-10-18T11:39:37.893Z,24.10
2022-10-18T11:45:02.882Z,24.23
2022-10-18T11:50:30.802Z,24.01
2022-10-18T11:56:05.354Z,24.26
2022-10-18T12:01:28.569Z,24.34
2022-10-18T12:06:35.604Z,24.34
2022-10-18T12:11:47.151Z,24.57
2022-10-18T12:16:52.282Z,24.62
2022-10-18T12:22:03.462Z,24.54
2022-10-18T12:27:05.456Z,24.75
2022-10-18T12:32:13.436Z,24.65
2022-10-18T12:37:34.212Z,24.51
2022-10-18T12:42:41.858Z,24.31
2022-10-18T12:47:43.791Z,24.31
2022-10-18T12:53:21.348Z,24.25
2022-10-18T12:58:23.199Z,24.68
2022-10-18T13:03:25.007Z,24.82
2022-10-18T13:08:38.433Z,24.82
2022-10-18T13:13:59.102Z,25.10
2022-10-18T13:19:21.073Z,25.13
2022-10-18T13:24:43.926Z,25.41
2022-10-18T13:30:10.740Z,25.46
2022-10-18T13:35:52.016Z,25.52
2022-10-18T13:41:13.485Z,25.73
2022-10-18T13:47:32.942Z,25.73
2022-10-18T13:52:59.141Z,25.74
2022-10-18T13:58:20.507Z,25.67
2022-10-18T14:03:58.718Z,25.58
2022-10-18T14:09:25.423Z,25.66
2022-10-18T14:14:30.125Z,26.00
2022-10-18T14:21:14.212Z,26.10
2022-10-18T14:26:19.207Z,25.99
2022-10-18T14:31:21.115Z,26.07
2022-10-18T14:36:25.039Z,25.91
2022-10-18T14:41:31.684Z,25.70
2022-10-18T14:46:34.639Z,25.50
2022-10-18T14:51:36.973Z,25.72
2022-10-18T14:56:40.160Z,25.77
2022-10-18T15:01:55.667Z,25.77
2022-10-18T15:07:02.118Z,25.90
2022-10-18T15:12:05.774Z,25.90
2022-10-18T15:17:26.588Z,26.05
2022-10-18T15:29:43.554Z,25.77
2022-10-18T15:34:45.977Z,26.23
2022-10-18T15:46:57.536Z,25.91
2022-10-18T15:52:08.509Z,25.64
2022-10-18T15:57:10.629Z,25.30
2022-10-18T16:02:14.487Z,25.37
2022-10-18T16:07:16.378Z,25.16
2022-10-18T16:12:18.245Z,24.81
2022-10-18T16:17:20.069Z,24.84
2022-10-18T16:29:46.704Z,24.66
2022-10-18T16:34:48.659Z,24.59
2022-10-18T16:39:50.676Z,24.54
2022-10-18T16:44:54.383Z,24.40
2022-10-18T16:49:56.284Z,24.20
2022-10-18T16:54:58.208Z,24.11
2022-10-18T17:00:00.357Z,24.04
2022-10-18T17:05:02.207Z,23.93
2022-10-18T17:10:04.545Z,23.64
2022-10-18T17:15:07.399Z,23.71
2022-10-18T17:20:11.756Z,23.66
2022-10-18T17:25:14.081Z,23.50
2022-10-18T17:30:17.965Z,23.20
2022-10-18T17:35:19.872Z,23.15
2022-10-18T17:40:24.186Z,22.97
2022-10-18T17:45:26.867Z,22.92
2022-10-18T17:50:29.303Z,22.76
2022-10-18T17:55:31.204Z,22.59
2022-10-18T18:08:02.733Z,22.30
2022-10-18T18:13:05.981Z,22.16
2022-10-18T18:18:08.203Z,22.12
2022-10-18T18:23:12.000Z,22.00
2022-10-18T18:28:14.075Z,21.77
2022-10-18T18:33:16.366Z,21.88
2022-10-18T18:38:18.553Z,21.87
2022-10-18T18:43:23.739Z,21.79
2022-10-18T18:48:28.726Z,21.69
2022-10-18T18:53:31.430Z,21.71
2022-10-18T18:58:35.311Z,21.66
2022-10-18T19:03:38.894Z,21.49
2022-10-18T19:08:40.879Z,21.45
2022-10-18T19:13:44.803Z,21.27
2022-10-18T19:19:16.782Z,21.18
2022-10-18T19:24:21.014Z,21.05
2022-10-18T19:29:33.950Z,21.09
2022-10-18T19:34:35.920Z,21.08
2022-10-18T19:39:38.232Z,20.92
2022-10-18T19:44:41.284Z,20.85
2022-10-18T19:49:43.197Z,20.63
2022-10-18T19:54:45.410Z,20.72
2022-10-18T19:59:47.287Z,20.69
2022-10-18T20:04:49.113Z,20.68
2022-10-18T20:09:51.075Z,20.61
2022-10-18T20:14:52.920Z,20.55
2022-10-18T20:27:19.309Z,20.38
2022-10-18T20:32:21.168Z,20.30
2022-10-18T20:37:22.949Z,20.16
2022-10-18T20:42:24.887Z,20.06
2022-10-18T20:47:26.801Z,20.02
2022-10-18T20:52:28.775Z,19.89
2022-10-18T20:57:34.196Z,19.81
2022-10-18T21:02:38.490Z,19.74
2022-10-18T21:07:40.439Z,19.67
2022-10-18T21:12:42.431Z,19.70
2022-10-18T21:17:44.691Z,19.65
2022-10-18T21:22:52.351Z,19.63
2022-10-18T21:27:54.495Z,19.56
2022-10-18T21:32:56.454Z,19.52
2022-10-18T21:37:58.448Z,19.23
2022-10-18T21:43:00.523Z,19.03
2022-10-18T21:48:04.319Z,19.12
2022-10-18T21:53:06.433Z,19.09
2022-10-18T21:58:08.508Z,19.05
2022-10-18T22:03:13.043Z,18.96
2022-10-18T22:08:15.179Z,18.86
2022-10-18T22:13:17.285Z,18.79
2022-10-18T22:18:19.302Z,18.81
2022-10-18T22:23:21.422Z,18.72
2022-10-18T22:28:24.485Z,18.64
2022-10-18T22:33:27.044Z,18.56
2022-10-18T22:38:33.184Z,18.38
2022-10-18T22:43:35.973Z,18.27
2022-10-18T22:48:38.135Z,18.34
2022-10-18T22:53:41.660Z,18.34
2022-10-18T22:58:43.752Z,18.24
2022-10-18T23:03:45.910Z,18.23
2022-10-18T23:08:48.117Z,18.27
2022-10-18T23:13:50.702Z,18.19
2022-10-18T23:18:56.862Z,18.09
2022-10-18T23:23:58.724Z,17.92
2022-10-18T23:29:00.826Z,17.80
2022-10-18T23:34:04.669Z,17.66
2022-10-18T23:39:06.717Z,17.59
2022-10-18T23:44:09.280Z,17.62
2022-10-18T23:49:11.403Z,17.63
2022-10-18T23:54:13.307Z,17.64
2022-10-18T23:59:15.222Z,17.62
